Ajax, Louisiana
Current Conditions -  °F | °C
As of 11:15 AM on Thursday 18 Dec 2014 (Local Time) from KIER Reporting Station
Overcast Overcast  
Wind Chill: 52°   Ceiling: 1600
Heat Index: 52°   Visibility: 10mi
Dew Point: 48°   Wind: 6mph
Humidity: 86%   Direction: 90°E
Pressure: 30.17"   Gusts: NA
Location:  31.7926°N, 93.4001°W
Report Text: KIER 181715Z AUTO 09005KT 10SM SCT008 OVC016 11/09 A3017 RMK AO2 T01110088
Loading
Personal Weather Stations






























Interactive Weather Map New forecast layout! Learn more

10-Day Weather Forecast

Advertisements
Track Severe Weather on mobile